Time;durP1;ratioP1;P1;durP2;ratioP2;P2;SDS_P1;SDS_P2;PMS_P1;PMS_P2;Temp;Humidity;BMP_temperature;BMP_pressure;BME280_temperature;BME280_humidity;BME280_pressure;Samples;Min_cycle;Max_cycle;Signal;HPM_P1;HPM_P2
2022/05/02 00:00:40;;;;;;;17.20;11.67;;;;;;;;;;5070463;28;20415;-53
2022/05/02 00:03:06;;;;;;;13.17;10.10;;;;;;;;;;5070698;28;20428;-53
2022/05/02 00:05:32;;;;;;;23.33;10.90;;;;;;;;;;5070997;28;20404;-54
2022/05/02 00:07:58;;;;;;;14.33;9.90;;;;;;;;;;5071165;28;20396;-54
2022/05/02 00:10:24;;;;;;;12.93;10.50;;;;;;;;;;5070939;28;20458;-53
2022/05/02 00:12:50;;;;;;;12.50;10.50;;;;;;;;;;5070412;28;20442;-53
2022/05/02 00:15:16;;;;;;;14.77;9.20;;;;;;;;;;5070933;28;20442;-53
2022/05/02 00:17:57;;;;;;;11.83;9.70;;;;;;;;;;5071203;28;20487;-53
2022/05/02 00:20:24;;;;;;;11.00;9.53;;;;;;;;;;5070823;28;20419;-53
2022/05/02 00:22:50;;;;;;;12.57;10.23;;;;;;;;;;5070384;28;20426;-53
2022/05/02 00:25:17;;;;;;;14.37;10.67;;;;;;;;;;5073086;28;20444;-53
2022/05/02 00:27:43;;;;;;;11.97;9.60;;;;;;;;;;5074555;28;20391;-53
2022/05/02 00:30:10;;;;;;;10.63;9.53;;;;;;;;;;5074202;28;20456;-53
2022/05/02 00:32:36;;;;;;;12.90;10.30;;;;;;;;;;5073715;28;20421;-54
2022/05/02 00:35:02;;;;;;;12.60;9.43;;;;;;;;;;5074190;28;20421;-53
2022/05/02 00:37:29;;;;;;;16.37;10.80;;;;;;;;;;5074457;28;20404;-53
2022/05/02 00:39:55;;;;;;;12.60;9.50;;;;;;;;;;5074045;28;20437;-53
2022/05/02 00:42:21;;;;;;;13.33;10.10;;;;;;;;;;5073089;28;20437;-53
2022/05/02 00:44:46;;;;;;;13.67;10.27;;;;;;;;;;5074043;28;20423;-53
2022/05/02 00:47:15;;;;;;;11.20;10.07;;;;;;;;;;5073824;28;20436;-53
2022/05/02 00:49:42;;;;;;;12.00;9.80;;;;;;;;;;5073897;28;20466;-53
2022/05/02 00:52:09;;;;;;;14.77;11.13;;;;;;;;;;5073017;28;20454;-53
2022/05/02 00:54:37;;;;;;;13.00;9.73;;;;;;;;;;5073850;28;20419;-53
2022/05/02 00:57:05;;;;;;;13.33;9.57;;;;;;;;;;5073824;28;20422;-53
2022/05/02 00:59:31;;;;;;;12.47;10.83;;;;;;;;;;5074029;28;20766;-53
2022/05/02 01:01:57;;;;;;;11.37;9.60;;;;;;;;;;5072055;28;20413;-53
2022/05/02 01:04:23;;;;;;;12.53;9.63;;;;;;;;;;5073479;28;20819;-53
2022/05/02 01:09:34;;;;;;;16.50;10.40;;;;;;;;;;5053657;28;20588;-53
2022/05/02 01:12:00;;;;;;;14.83;11.63;;;;;;;;;;5054375;28;20428;-53
2022/05/02 01:14:26;;;;;;;13.73;10.17;;;;;;;;;;5074025;28;20405;-53
2022/05/02 01:16:52;;;;;;;11.60;10.37;;;;;;;;;;5073680;28;20409;-53
2022/05/02 01:19:18;;;;;;;13.23;10.60;;;;;;;;;;5073341;28;20794;-54
2022/05/02 01:21:44;;;;;;;15.10;12.03;;;;;;;;;;5072928;28;20491;-53
2022/05/02 01:24:10;;;;;;;16.10;9.87;;;;;;;;;;5073132;28;20476;-53
2022/05/02 01:26:37;;;;;;;22.50;11.33;;;;;;;;;;5073114;28;20907;-53
2022/05/02 01:29:04;;;;;;;22.80;11.60;;;;;;;;;;5073207;28;20453;-53
2022/05/02 01:31:30;;;;;;;13.30;10.37;;;;;;;;;;5072707;28;20409;-53
2022/05/02 01:33:56;;;;;;;13.50;11.00;;;;;;;;;;5073289;28;20939;-54
2022/05/02 01:36:23;;;;;;;12.93;10.93;;;;;;;;;;5072787;28;20397;-53
2022/05/02 01:38:49;;;;;;;15.63;11.47;;;;;;;;;;5072996;28;20905;-53
2022/05/02 01:41:16;;;;;;;14.87;11.40;;;;;;;;;;5072508;28;20417;-54
2022/05/02 01:43:42;;;;;;;15.53;11.73;;;;;;;;;;5072794;28;21032;-54
2022/05/02 01:46:09;;;;;;;16.60;11.67;;;;;;;;;;5052778;28;20421;-53
2022/05/02 01:48:35;;;;;;;14.50;11.40;;;;;;;;;;5052831;28;20451;-54
2022/05/02 01:51:01;;;;;;;19.90;11.20;;;;;;;;;;5052385;28;20409;-54
2022/05/02 01:53:27;;;;;;;13.83;11.60;;;;;;;;;;5069850;28;20512;-53
2022/05/02 01:55:53;;;;;;;15.40;12.67;;;;;;;;;;5072633;28;20417;-53
2022/05/02 01:58:19;;;;;;;14.60;11.53;;;;;;;;;;5072789;28;20402;-53
2022/05/02 02:00:45;;;;;;;16.10;10.90;;;;;;;;;;5072189;28;20461;-54
2022/05/02 02:03:11;;;;;;;14.50;11.40;;;;;;;;;;5072333;28;20450;-54
2022/05/02 02:05:49;;;;;;;17.13;11.40;;;;;;;;;;5072792;28;20897;-54
2022/05/02 02:08:16;;;;;;;15.33;11.90;;;;;;;;;;5072310;28;20463;-53
2022/05/02 02:10:43;;;;;;;15.33;11.93;;;;;;;;;;5072356;28;20782;-52
2022/05/02 02:13:09;;;;;;;13.87;10.70;;;;;;;;;;5072401;28;20479;-53
2022/05/02 02:15:35;;;;;;;14.50;11.50;;;;;;;;;;5072529;28;20479;-53
2022/05/02 02:18:01;;;;;;;16.20;12.90;;;;;;;;;;5072491;28;20476;-53
2022/05/02 02:20:27;;;;;;;12.80;10.90;;;;;;;;;;5072414;28;20398;-54
2022/05/02 02:22:53;;;;;;;15.23;11.60;;;;;;;;;;5071729;28;20416;-53
2022/05/02 02:25:19;;;;;;;14.83;11.33;;;;;;;;;;5071966;28;20426;-53
2022/05/02 02:27:45;;;;;;;12.27;10.13;;;;;;;;;;5071673;28;20441;-53
2022/05/02 02:30:11;;;;;;;12.63;11.03;;;;;;;;;;5071592;28;20494;-53
2022/05/02 02:32:37;;;;;;;12.10;10.83;;;;;;;;;;5071040;28;20436;-54
2022/05/02 02:35:03;;;;;;;13.40;9.97;;;;;;;;;;5072233;28;20400;-54
2022/05/02 02:37:29;;;;;;;12.70;10.57;;;;;;;;;;5071875;28;20416;-53
2022/05/02 02:39:55;;;;;;;14.80;11.97;;;;;;;;;;5072031;28;20409;-53
2022/05/02 02:42:22;;;;;;;15.10;12.60;;;;;;;;;;5071014;28;20903;-53
2022/05/02 02:44:48;;;;;;;16.93;12.97;;;;;;;;;;5072085;28;20398;-53
2022/05/02 02:47:14;;;;;;;12.57;10.50;;;;;;;;;;5071143;28;20420;-52
2022/05/02 02:49:40;;;;;;;14.93;11.37;;;;;;;;;;5071985;28;20458;-54
2022/05/02 02:52:08;;;;;;;16.03;11.10;;;;;;;;;;5070849;28;20460;-53
2022/05/02 02:54:34;;;;;;;14.07;10.30;;;;;;;;;;5071913;28;20414;-53
2022/05/02 02:56:59;;;;;;;12.20;10.10;;;;;;;;;;5071682;28;20409;-54
2022/05/02 02:59:25;;;;;;;11.80;10.60;;;;;;;;;;5071843;28;20445;-53
2022/05/02 03:01:51;;;;;;;14.63;11.90;;;;;;;;;;5070924;28;20455;-53
2022/05/02 03:07:02;;;;;;;15.60;10.80;;;;;;;;;;5071529;28;20412;-53
2022/05/02 03:09:28;;;;;;;16.13;11.40;;;;;;;;;;5071605;28;20464;-53
2022/05/02 03:11:54;;;;;;;13.90;10.60;;;;;;;;;;5071085;28;21186;-53
2022/05/02 03:14:20;;;;;;;13.93;10.73;;;;;;;;;;5071735;28;20865;-53
2022/05/02 03:16:46;;;;;;;15.20;11.30;;;;;;;;;;5071680;28;20397;-53
2022/05/02 03:19:12;;;;;;;17.03;11.50;;;;;;;;;;5071620;28;20873;-53
2022/05/02 03:21:38;;;;;;;15.23;11.57;;;;;;;;;;5070760;28;20455;-53
2022/05/02 03:24:04;;;;;;;13.57;11.40;;;;;;;;;;5071552;28;20499;-53
2022/05/02 03:26:30;;;;;;;13.37;11.73;;;;;;;;;;5071740;28;20397;-53
2022/05/02 03:28:57;;;;;;;19.10;14.10;;;;;;;;;;5071228;28;20461;-53
2022/05/02 03:31:23;;;;;;;16.77;12.40;;;;;;;;;;5070922;28;20401;-53
2022/05/02 03:33:49;;;;;;;18.33;12.70;;;;;;;;;;5070831;28;20483;-53
2022/05/02 03:36:15;;;;;;;16.60;13.40;;;;;;;;;;5071511;28;20889;-53
2022/05/02 03:38:41;;;;;;;16.20;13.63;;;;;;;;;;5071299;28;20422;-53
2022/05/02 03:41:07;;;;;;;15.57;13.17;;;;;;;;;;5070814;28;20413;-53
2022/05/02 03:43:34;;;;;;;15.10;12.10;;;;;;;;;;5071135;28;20438;-53
2022/05/02 03:46:00;;;;;;;14.00;12.37;;;;;;;;;;5071467;28;20401;-53
2022/05/02 03:48:26;;;;;;;18.23;12.83;;;;;;;;;;5071005;28;20461;-53
2022/05/02 03:50:52;;;;;;;17.93;13.13;;;;;;;;;;5070723;28;20795;-53
2022/05/02 03:53:18;;;;;;;14.87;12.20;;;;;;;;;;5068515;28;20546;-53
2022/05/02 03:55:45;;;;;;;14.00;11.67;;;;;;;;;;5071398;28;20496;-53
2022/05/02 03:58:11;;;;;;;13.60;10.83;;;;;;;;;;5071134;28;20441;-53
2022/05/02 04:00:37;;;;;;;18.60;12.77;;;;;;;;;;5075034;28;20393;-53
2022/05/02 04:03:03;;;;;;;15.90;11.40;;;;;;;;;;5074165;28;20476;-53
2022/05/02 04:05:29;;;;;;;14.73;11.40;;;;;;;;;;5075054;28;20496;-54
2022/05/02 04:07:55;;;;;;;16.60;11.20;;;;;;;;;;5074634;28;20554;-54
2022/05/02 04:10:21;;;;;;;13.87;11.10;;;;;;;;;;5074929;28;20461;-54
2022/05/02 04:12:47;;;;;;;15.73;11.70;;;;;;;;;;5073861;28;20989;-54
2022/05/02 04:15:14;;;;;;;12.23;11.00;;;;;;;;;;5075685;28;20405;-51
2022/05/02 04:17:40;;;;;;;16.67;11.00;;;;;;;;;;5074530;28;20422;-51
2022/05/02 04:20:07;;;;;;;18.90;12.10;;;;;;;;;;5074674;28;20467;-54
2022/05/02 04:22:33;;;;;;;27.33;12.90;;;;;;;;;;5073878;28;20491;-51
2022/05/02 04:24:59;;;;;;;16.87;12.40;;;;;;;;;;5074805;28;20410;-53
2022/05/02 04:27:24;;;;;;;15.27;11.63;;;;;;;;;;5074438;28;20405;-54
2022/05/02 04:29:50;;;;;;;15.70;11.30;;;;;;;;;;5074442;28;20980;-51
2022/05/02 04:32:16;;;;;;;17.30;12.20;;;;;;;;;;5073609;28;20421;-51
2022/05/02 04:34:42;;;;;;;22.43;12.30;;;;;;;;;;5074677;28;20746;-51
2022/05/02 04:37:08;;;;;;;15.10;12.37;;;;;;;;;;5074235;28;20404;-50
2022/05/02 04:39:34;;;;;;;12.40;11.10;;;;;;;;;;5074123;28;20420;-50
2022/05/02 04:42:00;;;;;;;18.23;11.53;;;;;;;;;;5073790;28;20428;-51
2022/05/02 04:44:26;;;;;;;16.37;12.27;;;;;;;;;;5074228;28;20440;-51
2022/05/02 04:46:52;;;;;;;13.70;12.00;;;;;;;;;;5074213;28;20935;-50
2022/05/02 04:49:18;;;;;;;15.90;12.50;;;;;;;;;;5074096;28;20794;-52
2022/05/02 04:51:44;;;;;;;17.50;12.10;;;;;;;;;;5073427;28;20905;-54
2022/05/02 04:54:10;;;;;;;19.73;13.07;;;;;;;;;;5074005;28;20934;-51
2022/05/02 04:56:36;;;;;;;18.53;12.27;;;;;;;;;;5074070;28;20914;-50
2022/05/02 04:59:02;;;;;;;14.50;10.67;;;;;;;;;;5073778;28;20421;-50
2022/05/02 05:01:28;;;;;;;16.73;12.23;;;;;;;;;;5073262;28;20403;-50
2022/05/02 05:03:54;;;;;;;16.20;11.67;;;;;;;;;;5073707;28;20468;-50
2022/05/02 05:06:20;;;;;;;16.03;12.63;;;;;;;;;;5073857;28;20443;-51
2022/05/02 05:08:46;;;;;;;13.27;11.23;;;;;;;;;;5073566;28;20449;-52
2022/05/02 05:11:31;;;;;;;17.13;13.20;;;;;;;;;;5072455;28;20409;-51
2022/05/02 05:17:24;;;;;;;15.53;12.43;;;;;;;;;;5073573;28;20885;-53
2022/05/02 05:19:55;;;;;;;15.57;13.27;;;;;;;;;;5070490;28;20514;-50
2022/05/02 05:22:39;;;;;;;15.60;12.17;;;;;;;;;;5072703;28;20438;-53
2022/05/02 05:25:24;;;;;;;13.67;11.37;;;;;;;;;;5073586;28;20447;-51
2022/05/02 05:28:09;;;;;;;16.10;13.10;;;;;;;;;;5073371;28;20532;-50
2022/05/02 05:30:38;;;;;;;18.33;13.23;;;;;;;;;;5073365;28;20472;-50
2022/05/02 05:33:04;;;;;;;15.33;11.73;;;;;;;;;;5072438;28;20435;-51
2022/05/02 05:35:39;;;;;;;15.10;11.67;;;;;;;;;;5072280;28;20422;-51
2022/05/02 05:38:09;;;;;;;21.00;14.17;;;;;;;;;;5069035;28;20507;-51
2022/05/02 05:40:39;;;;;;;14.37;11.60;;;;;;;;;;5073210;28;20398;-50
2022/05/02 05:43:28;;;;;;;12.33;11.03;;;;;;;;;;5071166;28;20943;-51
2022/05/02 05:46:09;;;;;;;15.80;13.40;;;;;;;;;;5072527;28;20963;-50
2022/05/02 05:48:45;;;;;;;18.57;14.67;;;;;;;;;;5072249;28;20546;-50
2022/05/02 05:51:19;;;;;;;18.70;13.67;;;;;;;;;;5071913;28;20414;-53
2022/05/02 05:53:45;;;;;;;20.00;12.40;;;;;;;;;;5072255;28;20436;-51
2022/05/02 05:56:30;;;;;;;18.77;13.43;;;;;;;;;;5072432;28;20483;-51
2022/05/02 05:58:56;;;;;;;15.63;12.50;;;;;;;;;;5072306;28;20975;-51
2022/05/02 06:01:42;;;;;;;13.67;12.10;;;;;;;;;;5072089;28;20450;-50
2022/05/02 06:04:09;;;;;;;15.07;12.43;;;;;;;;;;5072369;28;20408;-51
2022/05/02 06:06:36;;;;;;;14.03;11.60;;;;;;;;;;5072448;28;20439;-50
2022/05/02 06:09:02;;;;;;;19.93;12.63;;;;;;;;;;5072539;28;20493;-51
2022/05/02 06:11:28;;;;;;;16.53;11.57;;;;;;;;;;5069590;28;20940;-51
2022/05/02 06:13:55;;;;;;;13.03;11.63;;;;;;;;;;5071873;28;20711;-51
2022/05/02 06:19:10;;;;;;;15.20;13.00;;;;;;;;;;5072108;28;20415;-53
2022/05/02 06:21:36;;;;;;;15.77;13.00;;;;;;;;;;5070683;28;20503;-50
2022/05/02 06:24:04;;;;;;;16.80;12.53;;;;;;;;;;5071925;28;20483;-51
2022/05/02 06:26:30;;;;;;;14.20;12.40;;;;;;;;;;5071676;28;20452;-51
2022/05/02 06:28:56;;;;;;;14.23;11.20;;;;;;;;;;5071866;28;20488;-51
2022/05/02 06:31:25;;;;;;;16.47;12.17;;;;;;;;;;5071185;28;20420;-51
2022/05/02 06:33:51;;;;;;;13.17;11.30;;;;;;;;;;5071932;28;20920;-51
2022/05/02 06:36:36;;;;;;;16.43;11.67;;;;;;;;;;5072163;28;20471;-51
2022/05/02 06:39:14;;;;;;;13.73;11.70;;;;;;;;;;5071944;28;20428;-53
2022/05/02 06:41:41;;;;;;;11.97;10.30;;;;;;;;;;5071342;28;20403;-52
2022/05/02 06:44:16;;;;;;;18.03;11.37;;;;;;;;;;5071853;28;20919;-51
2022/05/02 06:46:50;;;;;;;14.93;11.60;;;;;;;;;;5071840;28;20778;-51
2022/05/02 06:49:17;;;;;;;15.60;12.80;;;;;;;;;;5071360;28;20453;-51
2022/05/02 06:51:48;;;;;;;16.90;12.17;;;;;;;;;;5071221;28;20451;-51
2022/05/02 06:54:33;;;;;;;16.17;11.87;;;;;;;;;;5071774;28;20425;-51
2022/05/02 06:57:05;;;;;;;13.03;11.50;;;;;;;;;;5065587;28;20411;-51
2022/05/02 06:59:34;;;;;;;17.83;12.77;;;;;;;;;;5071590;28;20449;-51
2022/05/02 07:02:09;;;;;;;17.03;11.80;;;;;;;;;;5070865;28;20841;-54
2022/05/02 07:04:45;;;;;;;16.13;12.30;;;;;;;;;;5071829;28;20409;-51
2022/05/02 07:07:29;;;;;;;14.60;12.30;;;;;;;;;;5069509;28;20772;-50
2022/05/02 07:10:09;;;;;;;15.20;12.30;;;;;;;;;;5069626;28;20905;-51
2022/05/02 07:12:39;;;;;;;14.10;12.60;;;;;;;;;;5068652;28;20468;-54
2022/05/02 07:15:09;;;;;;;15.63;12.07;;;;;;;;;;5071325;28;20430;-53
2022/05/02 07:17:45;;;;;;;16.87;12.30;;;;;;;;;;5071376;28;20425;-51
2022/05/02 07:20:18;;;;;;;15.80;13.00;;;;;;;;;;5071206;28;20460;-54
2022/05/02 07:22:44;;;;;;;14.60;12.60;;;;;;;;;;5070777;28;20424;-51
2022/05/02 07:25:12;;;;;;;16.30;12.70;;;;;;;;;;5071404;28;20889;-51
2022/05/02 07:28:01;;;;;;;17.47;14.43;;;;;;;;;;5071534;28;20406;-51
2022/05/02 07:30:27;;;;;;;15.93;12.77;;;;;;;;;;5071600;28;20460;-52
2022/05/02 07:32:53;;;;;;;19.67;13.53;;;;;;;;;;5071085;28;20982;-51
2022/05/02 07:35:21;;;;;;;17.63;12.87;;;;;;;;;;5075511;28;20467;-51
2022/05/02 07:37:47;;;;;;;14.40;12.67;;;;;;;;;;5075313;28;20399;-52
2022/05/02 07:40:14;;;;;;;15.27;12.13;;;;;;;;;;5073737;28;20458;-51
2022/05/02 07:42:42;;;;;;;17.63;13.10;;;;;;;;;;5074509;28;20426;-51
2022/05/02 07:45:10;;;;;;;13.23;11.80;;;;;;;;;;5074511;28;20422;-52
2022/05/02 07:47:37;;;;;;;14.13;11.43;;;;;;;;;;5074966;28;20795;-51
2022/05/02 07:50:03;;;;;;;14.90;10.67;;;;;;;;;;5074740;28;20418;-52
2022/05/02 07:52:31;;;;;;;12.37;9.50;;;;;;;;;;5074102;28;20423;-52
2022/05/02 07:54:59;;;;;;;13.47;11.10;;;;;;;;;;5074964;28;20403;-55
2022/05/02 07:57:25;;;;;;;14.10;9.93;;;;;;;;;;5074984;28;20407;-54
2022/05/02 07:59:56;;;;;;;14.53;10.97;;;;;;;;;;5075080;28;20483;-53
2022/05/02 08:02:22;;;;;;;13.13;10.93;;;;;;;;;;5073848;28;20938;-51
2022/05/02 08:04:49;;;;;;;12.70;10.20;;;;;;;;;;5074430;28;20986;-52
2022/05/02 08:07:32;;;;;;;12.60;10.57;;;;;;;;;;5074668;28;20422;-52
2022/05/02 08:10:07;;;;;;;17.10;12.03;;;;;;;;;;5074515;28;20455;-52
2022/05/02 08:12:33;;;;;;;10.13;9.13;;;;;;;;;;5073924;28;20418;-52
2022/05/02 08:15:02;;;;;;;14.60;10.57;;;;;;;;;;5074553;28;20400;-54
2022/05/02 08:17:28;;;;;;;11.50;9.40;;;;;;;;;;5074462;28;20800;-55
2022/05/02 08:19:54;;;;;;;10.83;9.57;;;;;;;;;;5074451;28;20408;-55
2022/05/02 08:28:17;;;;;;;10.13;9.00;;;;;;;;;;5071927;28;20407;-53
2022/05/02 08:30:58;;;;;;;9.43;8.30;;;;;;;;;;5071414;28;20420;-52
2022/05/02 08:33:26;;;;;;;11.40;8.83;;;;;;;;;;5063145;28;20414;-55
2022/05/02 08:36:01;;;;;;;10.30;9.40;;;;;;;;;;5053875;28;20448;-52
2022/05/02 08:38:36;;;;;;;10.13;8.30;;;;;;;;;;5054194;28;20804;-52
2022/05/02 08:41:20;;;;;;;9.30;8.40;;;;;;;;;;5069805;28;20390;-54
2022/05/02 08:43:52;;;;;;;10.43;8.97;;;;;;;;;;5074218;28;20970;-52
2022/05/02 08:46:27;;;;;;;10.60;9.03;;;;;;;;;;5072811;28;20397;-53
2022/05/02 08:52:13;;;;;;;13.10;9.80;;;;;;;;;;5070665;28;20554;-54
2022/05/02 08:54:39;;;;;;;13.43;9.43;;;;;;;;;;5063351;28;20515;-53
2022/05/02 08:57:18;;;;;;;13.50;9.17;;;;;;;;;;5053678;28;20397;-53
2022/05/02 08:59:57;;;;;;;9.70;8.37;;;;;;;;;;5053849;28;20949;-53
2022/05/02 09:02:23;;;;;;;10.40;8.40;;;;;;;;;;5058155;28;20853;-53
2022/05/02 09:05:16;;;;;;;12.37;8.87;;;;;;;;;;5073778;28;20428;-53
2022/05/02 09:08:08;;;;;;;15.27;9.23;;;;;;;;;;5072795;28;20809;-54
2022/05/02 09:10:49;;;;;;;9.70;8.20;;;;;;;;;;5071012;28;20916;-54
2022/05/02 09:13:24;;;;;;;10.00;9.00;;;;;;;;;;5053492;28;20496;-56
2022/05/02 09:15:57;;;;;;;17.70;9.47;;;;;;;;;;5054670;28;20407;-56
2022/05/02 09:18:42;;;;;;;11.07;9.00;;;;;;;;;;5073414;28;20391;-54
2022/05/02 09:21:21;;;;;;;10.67;9.40;;;;;;;;;;5072837;28;20464;-56
2022/05/02 09:24:05;;;;;;;14.30;10.47;;;;;;;;;;5073564;28;20966;-53
2022/05/02 09:26:40;;;;;;;11.33;9.40;;;;;;;;;;5073301;28;20485;-55
2022/05/02 09:29:22;;;;;;;12.40;9.73;;;;;;;;;;5073107;28;21018;-52
2022/05/02 09:31:58;;;;;;;10.10;8.47;;;;;;;;;;5072432;28;20432;-52
2022/05/02 09:34:37;;;;;;;12.00;9.00;;;;;;;;;;5073151;28;20397;-55
2022/05/02 09:37:07;;;;;;;13.13;9.30;;;;;;;;;;5073245;28;20534;-53
2022/05/02 09:39:47;;;;;;;15.67;10.50;;;;;;;;;;5072711;28;20800;-53
2022/05/02 09:42:22;;;;;;;10.57;9.10;;;;;;;;;;5087207;28;20442;-53
2022/05/02 09:51:19;;;;;;;9.60;8.70;;;;;;;;;;5054520;28;20387;-53
2022/05/02 09:53:48;;;;;;;11.33;8.53;;;;;;;;;;5072121;28;20519;-55
2022/05/02 09:56:54;;;;;;;10.67;8.60;;;;;;;;;;5071896;28;20557;-52
2022/05/02 09:59:22;;;;;;;9.23;8.43;;;;;;;;;;5071856;28;20431;-52
2022/05/02 10:01:51;;;;;;;12.20;9.00;;;;;;;;;;5072184;28;20427;-53
2022/05/02 10:04:26;;;;;;;12.93;8.93;;;;;;;;;;5072918;28;20392;-53
2022/05/02 10:06:52;;;;;;;15.70;10.67;;;;;;;;;;5072545;28;20425;-53
2022/05/02 10:09:21;;;;;;;11.60;9.30;;;;;;;;;;5072396;28;20474;-53
2022/05/02 10:12:04;;;;;;;11.03;9.93;;;;;;;;;;5071567;28;20792;-54
2022/05/02 10:14:50;;;;;;;11.70;9.57;;;;;;;;;;5072558;28;20792;-52
2022/05/02 10:17:19;;;;;;;12.83;9.87;;;;;;;;;;5055897;28;20777;-52
2022/05/02 10:19:58;;;;;;;15.23;10.00;;;;;;;;;;5071880;28;20838;-54
2022/05/02 10:22:44;;;;;;;10.97;9.93;;;;;;;;;;5070908;28;20558;-54
2022/05/02 10:25:28;;;;;;;11.17;9.90;;;;;;;;;;5069700;28;20410;-54
2022/05/02 10:28:13;;;;;;;11.83;9.77;;;;;;;;;;5064496;28;20517;-55
2022/05/02 10:30:43;;;;;;;11.97;9.03;;;;;;;;;;5070912;28;20463;-53
2022/05/02 10:33:16;;;;;;;9.90;8.73;;;;;;;;;;5071478;28;20477;-52
2022/05/02 10:35:46;;;;;;;11.40;10.43;;;;;;;;;;5070101;28;20408;-53
2022/05/02 10:38:17;;;;;;;12.30;9.43;;;;;;;;;;5071723;28;20417;-53
2022/05/02 10:40:45;;;;;;;10.60;9.50;;;;;;;;;;5071738;28;20495;-55
2022/05/02 10:43:14;;;;;;;12.90;10.20;;;;;;;;;;5071747;28;20564;-56
2022/05/02 10:45:41;;;;;;;11.17;9.87;;;;;;;;;;5072041;28;20404;-56
2022/05/02 10:48:19;;;;;;;12.47;9.47;;;;;;;;;;5071645;28;20517;-53
2022/05/02 10:50:49;;;;;;;10.93;9.63;;;;;;;;;;5068015;28;20455;-55
2022/05/02 10:53:31;;;;;;;11.20;8.90;;;;;;;;;;5056607;28;20452;-53
2022/05/02 10:56:16;;;;;;;9.93;9.03;;;;;;;;;;5071996;28;20408;-56
2022/05/02 10:58:43;;;;;;;10.97;9.53;;;;;;;;;;5071481;28;20405;-53
2022/05/02 11:01:09;;;;;;;9.57;8.67;;;;;;;;;;5071788;28;20407;-53
2022/05/02 11:03:54;;;;;;;9.83;8.67;;;;;;;;;;5072222;28;20437;-55
2022/05/02 11:06:23;;;;;;;13.10;9.00;;;;;;;;;;5072169;28;20181;-53
2022/05/02 11:08:55;;;;;;;9.60;8.70;;;;;;;;;;5071867;28;20543;-53
2022/05/02 11:11:26;;;;;;;11.70;8.17;;;;;;;;;;5071737;28;20407;-54
2022/05/02 11:13:57;;;;;;;10.77;8.47;;;;;;;;;;5072079;28;20461;-53
2022/05/02 11:16:27;;;;;;;10.30;8.03;;;;;;;;;;5070893;28;20393;-53
2022/05/02 11:21:49;;;;;;;12.90;8.27;;;;;;;;;;5050066;28;20392;-54
2022/05/02 11:24:25;;;;;;;10.33;9.27;;;;;;;;;;5055269;28;20507;-54
2022/05/02 11:26:55;;;;;;;10.50;9.23;;;;;;;;;;5070494;28;20445;-56
2022/05/02 11:29:25;;;;;;;10.00;9.00;;;;;;;;;;5070847;28;20853;-54
2022/05/02 11:31:51;;;;;;;9.20;8.20;;;;;;;;;;5068948;28;20916;-54
2022/05/02 11:34:28;;;;;;;9.60;7.90;;;;;;;;;;5070808;28;20399;-54
2022/05/02 11:36:58;;;;;;;8.30;7.50;;;;;;;;;;5068722;28;20462;-55
2022/05/02 11:39:44;;;;;;;7.70;7.00;;;;;;;;;;5071619;28;20431;-55
2022/05/02 11:42:15;;;;;;;8.73;7.93;;;;;;;;;;5066545;28;20440;-56
2022/05/02 11:44:56;;;;;;;13.00;8.00;;;;;;;;;;5071484;28;20480;-55
2022/05/02 11:47:32;;;;;;;9.73;8.20;;;;;;;;;;5071181;28;20427;-55
2022/05/02 11:50:01;;;;;;;10.10;9.10;;;;;;;;;;5071056;28;20459;-55
2022/05/02 11:52:32;;;;;;;8.50;7.70;;;;;;;;;;5070301;28;20463;-55
2022/05/02 11:54:58;;;;;;;9.30;8.50;;;;;;;;;;5071327;28;20400;-56
2022/05/02 11:57:29;;;;;;;9.50;8.40;;;;;;;;;;5071147;28;20412;-55
2022/05/02 12:00:06;;;;;;;9.53;8.00;;;;;;;;;;5071308;28;20397;-55
2022/05/02 12:02:41;;;;;;;8.60;7.60;;;;;;;;;;5070508;28;20446;-56
2022/05/02 12:05:10;;;;;;;8.00;7.30;;;;;;;;;;5070364;28;20407;-56
2022/05/02 12:07:36;;;;;;;8.63;7.50;;;;;;;;;;5070089;28;20901;-55
2022/05/02 12:10:07;;;;;;;9.03;7.90;;;;;;;;;;5069904;28;20452;-55
2022/05/02 12:12:33;;;;;;;8.60;7.70;;;;;;;;;;5070363;28;20444;-56
2022/05/02 12:15:03;;;;;;;11.43;7.60;;;;;;;;;;5070814;28;20475;-55
2022/05/02 12:17:29;;;;;;;8.87;7.90;;;;;;;;;;5070659;28;20443;-55
2022/05/02 12:19:55;;;;;;;10.97;8.00;;;;;;;;;;5072748;28;20397;-55
2022/05/02 12:22:25;;;;;;;12.73;8.90;;;;;;;;;;5073877;28;20489;-55
2022/05/02 12:24:53;;;;;;;13.40;9.13;;;;;;;;;;5074704;28;20911;-56
2022/05/02 12:27:20;;;;;;;8.53;7.77;;;;;;;;;;5074461;28;20423;-56
2022/05/02 12:29:56;;;;;;;11.20;7.80;;;;;;;;;;5074351;28;20448;-56
2022/05/02 12:32:25;;;;;;;9.70;8.77;;;;;;;;;;5072296;28;20943;-56
2022/05/02 12:34:55;;;;;;;9.43;8.57;;;;;;;;;;5074474;28;20397;-56
2022/05/02 12:37:31;;;;;;;8.40;7.60;;;;;;;;;;5074305;28;20455;-55
2022/05/02 12:40:04;;;;;;;7.60;6.97;;;;;;;;;;5074267;28;20406;-56
2022/05/02 12:42:37;;;;;;;8.97;7.57;;;;;;;;;;5073426;28;20489;-56
2022/05/02 12:45:08;;;;;;;8.73;7.87;;;;;;;;;;5074337;28;20766;-57
2022/05/02 12:47:40;;;;;;;8.07;7.37;;;;;;;;;;5074099;28;20412;-57
2022/05/02 12:50:17;;;;;;;8.33;7.00;;;;;;;;;;5074084;28;20444;-56
2022/05/02 12:52:47;;;;;;;7.97;6.27;;;;;;;;;;5073174;28;20451;-57
2022/05/02 12:55:14;;;;;;;6.90;6.07;;;;;;;;;;5074151;28;20479;-58
2022/05/02 13:00:36;;;;;;;7.70;7.00;;;;;;;;;;5073903;28;20446;-57
2022/05/02 13:03:17;;;;;;;10.20;6.83;;;;;;;;;;5073031;28;20515;-57
2022/05/02 13:05:46;;;;;;;9.70;7.33;;;;;;;;;;5073991;28;20767;-56
2022/05/02 13:08:13;;;;;;;8.50;7.80;;;;;;;;;;5073592;28;20485;-56
2022/05/02 13:10:40;;;;;;;8.50;7.60;;;;;;;;;;5073698;28;20540;-56
2022/05/02 13:13:09;;;;;;;8.80;7.40;;;;;;;;;;5072961;28;20429;-58
2022/05/02 13:15:52;;;;;;;8.27;7.50;;;;;;;;;;5073801;28;20401;-56
2022/05/02 13:18:20;;;;;;;8.17;7.47;;;;;;;;;;5073359;28;20971;-58
2022/05/02 13:21:02;;;;;;;7.30;6.70;;;;;;;;;;5073326;28;20469;-56
2022/05/02 13:23:44;;;;;;;8.43;7.50;;;;;;;;;;5073156;28;20438;-57
2022/05/02 13:26:23;;;;;;;7.73;7.13;;;;;;;;;;5073603;28;20884;-58
2022/05/02 13:28:58;;;;;;;9.33;8.10;;;;;;;;;;5073188;28;20416;-58
2022/05/02 13:31:43;;;;;;;9.43;8.57;;;;;;;;;;5072461;28;20404;-56
2022/05/02 13:34:19;;;;;;;9.73;8.10;;;;;;;;;;5072689;28;20493;-56
2022/05/02 13:36:47;;;;;;;9.47;8.57;;;;;;;;;;5073351;28;20876;-56
2022/05/02 13:39:13;;;;;;;9.50;8.60;;;;;;;;;;5073348;28;20896;-54
2022/05/02 13:41:48;;;;;;;8.93;8.03;;;;;;;;;;5066683;28;20424;-56
2022/05/02 13:44:17;;;;;;;10.03;8.47;;;;;;;;;;5072773;28;20424;-55
2022/05/02 13:46:43;;;;;;;11.60;8.80;;;;;;;;;;5072926;28;20921;-55
2022/05/02 13:49:21;;;;;;;10.50;8.60;;;;;;;;;;5071797;28;20472;-56
2022/05/02 13:51:54;;;;;;;8.63;7.93;;;;;;;;;;5071367;28;20428;-55
2022/05/02 13:54:34;;;;;;;15.50;7.97;;;;;;;;;;5071967;28;20818;-55
2022/05/02 13:57:05;;;;;;;7.13;6.40;;;;;;;;;;5072561;28;20411;-55
2022/05/02 13:59:34;;;;;;;8.70;8.00;;;;;;;;;;5072970;28;20396;-54
2022/05/02 14:02:19;;;;;;;10.60;8.13;;;;;;;;;;5071986;28;20423;-55
2022/05/02 14:04:53;;;;;;;8.93;8.13;;;;;;;;;;5071046;28;20473;-54
2022/05/02 14:07:19;;;;;;;9.30;5.90;;;;;;;;;;5072771;28;20481;-53
2022/05/02 14:09:49;;;;;;;7.30;6.70;;;;;;;;;;5072209;28;20498;-53
2022/05/02 14:12:24;;;;;;;9.87;8.80;;;;;;;;;;5068861;28;20439;-56
2022/05/02 14:14:57;;;;;;;7.77;7.00;;;;;;;;;;5072217;28;20553;-55
2022/05/02 14:17:26;;;;;;;8.13;7.13;;;;;;;;;;5071960;28;20396;-56
2022/05/02 14:19:53;;;;;;;6.60;6.10;;;;;;;;;;5071127;28;20441;-56
2022/05/02 14:22:33;;;;;;;6.03;5.53;;;;;;;;;;5071219;28;20444;-58
2022/05/02 14:25:00;;;;;;;7.60;6.40;;;;;;;;;;5072155;28;20557;-58
2022/05/02 14:27:29;;;;;;;9.10;7.30;;;;;;;;;;5072212;28;20411;-55
2022/05/02 14:30:05;;;;;;;8.40;7.70;;;;;;;;;;5072235;28;20457;-55
2022/05/02 14:32:46;;;;;;;10.90;7.10;;;;;;;;;;5071255;28;20830;-56
2022/05/02 14:35:21;;;;;;;7.43;6.70;;;;;;;;;;5072502;28;20777;-56
2022/05/02 14:37:48;;;;;;;6.83;6.23;;;;;;;;;;5071969;28;20842;-55
2022/05/02 14:40:14;;;;;;;6.67;5.50;;;;;;;;;;5072077;28;20414;-56
2022/05/02 14:42:40;;;;;;;7.20;6.50;;;;;;;;;;5070553;28;20507;-56
2022/05/02 14:45:06;;;;;;;7.10;6.50;;;;;;;;;;5071846;28;20416;-56
2022/05/02 14:47:33;;;;;;;9.70;6.20;;;;;;;;;;5071706;28;20450;-55
2022/05/02 14:49:59;;;;;;;8.80;5.83;;;;;;;;;;5071902;28;20465;-56
2022/05/02 14:52:27;;;;;;;7.77;7.10;;;;;;;;;;5071194;28;20446;-56
2022/05/02 14:54:55;;;;;;;7.37;6.70;;;;;;;;;;5071701;28;20958;-56
2022/05/02 14:57:22;;;;;;;7.43;6.73;;;;;;;;;;5071856;28;20408;-55
2022/05/02 14:59:51;;;;;;;10.13;8.53;;;;;;;;;;5071704;28;20412;-56
2022/05/02 15:02:17;;;;;;;9.07;8.17;;;;;;;;;;5071312;28;20429;-53
2022/05/02 15:04:43;;;;;;;7.83;7.03;;;;;;;;;;5071427;28;20404;-53
2022/05/02 15:07:13;;;;;;;7.13;6.53;;;;;;;;;;5071857;28;20404;-53
2022/05/02 15:12:38;;;;;;;5.97;5.40;;;;;;;;;;5071221;28;20408;-56
2022/05/02 15:15:17;;;;;;;9.00;6.50;;;;;;;;;;5071650;28;20416;-56
2022/05/02 15:17:51;;;;;;;7.57;6.87;;;;;;;;;;5071772;28;20392;-55
2022/05/02 15:20:17;;;;;;;7.03;6.33;;;;;;;;;;5071437;28;20439;-56